createdAt,value
2023-11-15T00:01:57.175Z,2.22
2023-11-15T00:04:42.611Z,3.05
2023-11-15T00:07:28.277Z,2.83
2023-11-15T00:10:14.771Z,2.50
2023-11-15T00:13:00.715Z,3.22
2023-11-15T00:15:46.895Z,3.42
2023-11-15T00:18:32.793Z,2.65
2023-11-15T00:21:19.244Z,2.47
2023-11-15T00:24:05.716Z,2.90
2023-11-15T00:26:51.653Z,2.60
2023-11-15T00:29:37.046Z,2.70
2023-11-15T00:32:22.918Z,3.40
2023-11-15T00:35:09.946Z,2.85
2023-11-15T00:37:55.922Z,2.63
2023-11-15T00:40:43.006Z,2.95
2023-11-15T00:43:28.395Z,2.50
2023-11-15T00:46:16.625Z,3.03
2023-11-15T00:49:04.252Z,2.83
2023-11-15T00:51:49.808Z,2.42
2023-11-15T00:54:35.758Z,2.60
2023-11-15T00:57:24.427Z,3.30
2023-11-15T01:00:24.927Z,3.35
2023-11-15T01:03:11.618Z,2.92
2023-11-15T01:05:58.128Z,3.42
2023-11-15T01:08:43.883Z,3.30
2023-11-15T01:11:29.432Z,2.90
2023-11-15T01:14:14.924Z,3.22
2023-11-15T01:17:00.653Z,3.08
2023-11-15T01:19:46.235Z,2.83
2023-11-15T01:22:34.629Z,2.47
2023-11-15T01:25:21.801Z,2.13
2023-11-15T01:28:08.251Z,2.42
2023-11-15T01:30:53.695Z,2.67
2023-11-15T01:33:39.300Z,2.90
2023-11-15T01:36:25.434Z,2.80
2023-11-15T01:39:17.218Z,2.58
2023-11-15T01:42:04.348Z,1.92
2023-11-15T01:44:50.168Z,1.88
2023-11-15T01:47:36.765Z,2.60
2023-11-15T01:50:23.945Z,2.42
2023-11-15T01:53:10.022Z,2.53
2023-11-15T01:55:55.710Z,2.40
2023-11-15T01:58:41.925Z,2.10
2023-11-15T02:01:30.595Z,2.97
2023-11-15T02:04:16.236Z,2.60
2023-11-15T02:07:02.242Z,2.03
2023-11-15T02:09:47.850Z,2.60
2023-11-15T02:12:34.529Z,2.15
2023-11-15T02:15:22.434Z,2.22
2023-11-15T02:18:08.438Z,2.00
2023-11-15T02:20:54.483Z,2.17
2023-11-15T02:23:44.788Z,2.70
2023-11-15T02:26:30.824Z,2.63
2023-11-15T02:29:16.740Z,2.90
2023-11-15T02:32:07.824Z,3.15
2023-11-15T02:34:53.486Z,2.92
2023-11-15T02:37:39.140Z,2.40
2023-11-15T02:40:27.069Z,2.25
2023-11-15T02:43:14.015Z,2.78
2023-11-15T02:45:59.885Z,2.67
2023-11-15T02:48:45.530Z,2.78
2023-11-15T02:51:31.502Z,2.10
2023-11-15T02:54:17.616Z,2.38
2023-11-15T02:57:08.914Z,2.38
2023-11-15T02:59:54.437Z,2.42
2023-11-15T03:02:40.557Z,2.22
2023-11-15T03:05:27.431Z,2.08
2023-11-15T03:08:17.860Z,3.15
2023-11-15T03:11:04.022Z,2.80
2023-11-15T03:13:49.778Z,1.80
2023-11-15T03:16:35.294Z,3.00
2023-11-15T03:19:21.481Z,2.40
2023-11-15T03:22:07.056Z,1.98
2023-11-15T03:24:52.756Z,2.00
2023-11-15T03:27:38.423Z,2.10
2023-11-15T03:30:23.967Z,2.10
2023-11-15T03:33:09.776Z,1.88
2023-11-15T03:35:56.916Z,2.60
2023-11-15T03:38:43.075Z,2.78
2023-11-15T03:41:28.806Z,2.13
2023-11-15T03:44:16.841Z,2.83
2023-11-15T03:47:03.509Z,2.60
2023-11-15T03:49:49.361Z,2.70
2023-11-15T03:52:35.089Z,2.58
2023-11-15T03:55:21.793Z,2.15
2023-11-15T03:58:07.354Z,2.08
2023-11-15T04:00:53.073Z,2.50
2023-11-15T04:03:39.653Z,2.03
2023-11-15T04:06:28.415Z,2.20
2023-11-15T04:09:17.675Z,1.65
2023-11-15T04:12:03.713Z,1.73
2023-11-15T04:14:49.438Z,1.70
2023-11-15T04:17:37.566Z,1.60
2023-11-15T04:20:23.568Z,1.80
2023-11-15T04:23:09.448Z,1.92
2023-11-15T04:25:54.981Z,2.00
2023-11-15T04:28:40.583Z,2.30
2023-11-15T04:31:26.202Z,2.47
2023-11-15T04:34:11.727Z,2.70
2023-11-15T04:36:59.193Z,2.58
2023-11-15T04:39:45.116Z,2.55
2023-11-15T04:42:30.731Z,3.17
2023-11-15T04:45:16.310Z,3.80
2023-11-15T04:48:03.020Z,4.57
2023-11-15T04:50:50.195Z,4.40
2023-11-15T04:53:36.202Z,4.57
2023-11-15T04:56:23.918Z,4.60
2023-11-15T04:59:10.819Z,4.45
2023-11-15T05:01:56.603Z,3.70
2023-11-15T05:04:42.221Z,4.93
2023-11-15T05:07:28.006Z,4.03
2023-11-15T05:10:13.825Z,5.07
2023-11-15T05:13:00.281Z,5.47
2023-11-15T05:15:45.898Z,5.25
2023-11-15T05:18:31.710Z,4.57
2023-11-15T05:21:17.741Z,3.30
2023-11-15T05:24:04.240Z,3.95
2023-11-15T05:26:51.501Z,2.80
2023-11-15T05:29:37.045Z,3.40
2023-11-15T05:32:22.591Z,3.00
2023-11-15T05:35:11.426Z,3.22
2023-11-15T05:37:57.065Z,3.30
2023-11-15T05:40:44.750Z,4.18
2023-11-15T05:43:30.624Z,3.40
2023-11-15T05:46:16.254Z,3.30
2023-11-15T05:49:01.834Z,3.13
2023-11-15T05:51:47.423Z,3.75
2023-11-15T05:54:33.527Z,3.83
2023-11-15T05:57:21.376Z,3.47
2023-11-15T06:00:19.632Z,3.22
2023-11-15T06:03:05.740Z,4.10
2023-11-15T06:05:51.547Z,4.60
2023-11-15T06:08:37.639Z,4.20
2023-11-15T06:11:23.487Z,4.35
2023-11-15T06:14:09.637Z,5.10
2023-11-15T06:16:55.283Z,5.30
2023-11-15T06:19:41.185Z,5.38
2023-11-15T06:22:27.182Z,5.05
2023-11-15T06:25:19.938Z,5.05
2023-11-15T06:28:06.217Z,5.72
2023-11-15T06:30:52.206Z,4.50
2023-11-15T06:33:39.003Z,4.50
2023-11-15T06:36:25.465Z,4.45
2023-11-15T06:39:13.361Z,4.88
2023-11-15T06:41:59.512Z,4.60
2023-11-15T06:44:45.165Z,4.32
2023-11-15T06:47:31.095Z,4.10
2023-11-15T06:50:17.445Z,3.50
2023-11-15T06:53:03.340Z,4.15
2023-11-15T06:55:49.249Z,3.60
2023-11-15T06:58:35.225Z,3.42
2023-11-15T07:01:22.508Z,4.10
2023-11-15T07:04:08.475Z,4.47
2023-11-15T07:06:54.948Z,4.72
2023-11-15T07:09:40.346Z,5.45
2023-11-15T07:12:26.662Z,4.60
2023-11-15T07:15:17.677Z,4.72
2023-11-15T07:18:04.124Z,5.05
2023-11-15T07:20:50.345Z,4.47
2023-11-15T07:23:36.210Z,3.60
2023-11-15T07:26:24.752Z,4.47
2023-11-15T07:29:13.993Z,3.90
2023-11-15T07:32:02.703Z,4.15
2023-11-15T07:34:48.699Z,4.63
2023-11-15T07:37:35.633Z,4.18
2023-11-15T07:40:23.715Z,4.38
2023-11-15T07:43:15.921Z,4.30
2023-11-15T07:46:01.720Z,5.03
2023-11-15T07:48:49.963Z,4.35
2023-11-15T07:51:39.006Z,3.80
2023-11-15T07:54:25.046Z,4.18
2023-11-15T07:57:10.604Z,3.50
2023-11-15T07:59:57.223Z,3.35
2023-11-15T08:02:43.965Z,3.00
2023-11-15T08:05:30.102Z,3.30
2023-11-15T08:08:15.967Z,3.35
2023-11-15T08:11:05.071Z,3.03
2023-11-15T08:13:52.466Z,3.72
2023-11-15T08:16:39.108Z,4.10
2023-11-15T08:19:25.057Z,3.40
2023-11-15T08:22:11.118Z,4.15
2023-11-15T08:24:56.925Z,4.15
2023-11-15T08:27:43.180Z,3.30
2023-11-15T08:30:28.655Z,4.72
2023-11-15T08:33:18.349Z,4.82
2023-11-15T08:36:04.395Z,4.57
2023-11-15T08:38:53.373Z,3.38
2023-11-15T08:41:41.803Z,4.07
2023-11-15T08:44:27.735Z,4.90
2023-11-15T08:47:14.562Z,3.92
2023-11-15T08:50:01.115Z,4.28
2023-11-15T08:52:47.729Z,3.33
2023-11-15T08:55:34.189Z,3.67
2023-11-15T08:58:22.891Z,2.58
2023-11-15T09:01:10.513Z,2.17
2023-11-15T09:03:56.251Z,1.80
2023-11-15T09:06:49.228Z,1.70
2023-11-15T09:09:42.981Z,1.90
2023-11-15T09:12:31.863Z,1.63
2023-11-15T09:15:17.454Z,2.00
2023-11-15T09:18:08.108Z,1.90
2023-11-15T09:20:54.173Z,2.20
2023-11-15T09:23:42.717Z,2.15
2023-11-15T09:26:28.774Z,2.10
2023-11-15T09:29:14.356Z,2.10
2023-11-15T09:32:01.422Z,2.05
2023-11-15T09:34:49.885Z,2.67
2023-11-15T09:37:36.356Z,2.78
2023-11-15T09:40:22.518Z,3.28
2023-11-15T09:43:11.897Z,3.30
2023-11-15T09:45:59.860Z,3.10
2023-11-15T09:48:53.555Z,3.47
2023-11-15T09:51:44.063Z,3.38
2023-11-15T09:54:32.440Z,4.03
2023-11-15T09:57:21.424Z,4.05
2023-11-15T10:00:16.373Z,4.22
2023-11-15T10:03:07.562Z,4.45
2023-11-15T10:06:00.478Z,4.35
2023-11-15T10:08:55.512Z,3.97
2023-11-15T10:11:48.015Z,4.75
2023-11-15T10:14:37.423Z,4.45
2023-11-15T10:17:50.109Z,4.68
2023-11-15T10:20:37.072Z,4.60
2023-11-15T10:23:30.105Z,4.72
2023-11-15T10:26:17.565Z,3.83
2023-11-15T10:29:13.927Z,4.53
2023-11-15T10:32:04.361Z,4.80
2023-11-15T10:34:52.736Z,4.15
2023-11-15T10:37:49.703Z,4.57
2023-11-15T10:40:35.179Z,4.75
2023-11-15T10:43:20.907Z,4.90
2023-11-15T10:46:07.801Z,5.05
2023-11-15T10:48:57.846Z,4.40
2023-11-15T10:51:45.488Z,4.50
2023-11-15T10:54:31.634Z,3.83
2023-11-15T10:57:19.689Z,4.28
2023-11-15T11:00:12.810Z,3.80
2023-11-15T11:02:59.092Z,3.53
2023-11-15T11:06:04.418Z,2.85
2023-11-15T11:09:17.793Z,2.75
2023-11-15T11:12:17.953Z,3.17
2023-11-15T11:15:20.369Z,3.60
2023-11-15T11:18:19.532Z,3.22
2023-11-15T11:21:06.560Z,2.80
2023-11-15T11:24:24.007Z,3.20
2023-11-15T11:27:12.462Z,2.45
2023-11-15T11:30:06.901Z,3.33
2023-11-15T11:33:15.362Z,3.10
2023-11-15T11:36:03.363Z,2.83
2023-11-15T11:38:49.161Z,3.15
2023-11-15T11:41:34.736Z,3.13
2023-11-15T11:44:20.368Z,3.00
2023-11-15T11:47:10.268Z,3.33
2023-11-15T11:49:57.969Z,3.40
2023-11-15T11:52:43.585Z,2.95
2023-11-15T11:55:34.749Z,6.78
2023-11-15T11:58:20.775Z,3.53
2023-11-15T12:01:09.201Z,2.92
2023-11-15T12:04:00.834Z,2.45
2023-11-15T12:06:47.118Z,2.47
2023-11-15T12:09:33.600Z,2.28
2023-11-15T12:12:19.968Z,2.38
2023-11-15T12:15:16.876Z,2.60
2023-11-15T12:18:04.029Z,2.05
2023-11-15T12:20:49.933Z,2.45
2023-11-15T12:23:41.610Z,3.22
2023-11-15T12:26:29.005Z,2.30
2023-11-15T12:29:27.809Z,2.17
2023-11-15T12:32:14.371Z,2.22
2023-11-15T12:35:00.111Z,2.60
2023-11-15T12:37:46.848Z,2.35
2023-11-15T12:40:35.753Z,2.50
2023-11-15T12:43:31.465Z,2.78
2023-11-15T12:46:21.406Z,2.70
2023-11-15T12:49:15.506Z,2.00
2023-11-15T12:54:57.197Z,2.42
2023-11-15T12:57:54.527Z,2.75
2023-11-15T13:00:42.032Z,3.00
2023-11-15T13:03:35.803Z,1.98
2023-11-15T13:06:23.817Z,2.80
2023-11-15T13:09:16.609Z,2.15
2023-11-15T13:12:02.341Z,2.28
2023-11-15T13:14:47.747Z,2.38
2023-11-15T13:17:36.920Z,1.92
2023-11-15T13:20:22.428Z,2.05
2023-11-15T13:23:07.885Z,2.03
2023-11-15T13:25:54.856Z,1.92
2023-11-15T13:28:40.792Z,1.95
2023-11-15T13:31:26.577Z,2.15
2023-11-15T13:34:15.081Z,2.05
2023-11-15T13:37:01.090Z,1.83
2023-11-15T13:39:47.383Z,1.80
2023-11-15T13:42:34.233Z,2.30
2023-11-15T13:45:21.352Z,1.77
2023-11-15T13:48:07.571Z,1.65
2023-11-15T13:50:53.670Z,3.13
2023-11-15T13:53:40.518Z,3.13
2023-11-15T13:56:26.054Z,2.28
2023-11-15T13:59:11.624Z,2.55
2023-11-15T14:01:57.409Z,2.58
2023-11-15T14:04:44.153Z,2.95
2023-11-15T14:07:30.031Z,2.83
2023-11-15T14:10:20.562Z,3.55
2023-11-15T14:13:07.301Z,3.55
2023-11-15T14:15:54.362Z,3.70
2023-11-15T14:18:40.049Z,3.22
2023-11-15T14:21:26.146Z,2.97
2023-11-15T14:24:12.547Z,3.00
2023-11-15T14:26:59.062Z,2.55
2023-11-15T14:29:44.447Z,2.88
2023-11-15T14:32:32.589Z,3.20
2023-11-15T14:35:20.080Z,2.85
2023-11-15T14:38:09.475Z,2.78
2023-11-15T14:40:56.684Z,3.75
2023-11-15T14:43:42.293Z,2.75
2023-11-15T14:46:28.037Z,2.78
2023-11-15T14:49:13.956Z,3.13
2023-11-15T14:52:11.373Z,3.53
2023-11-15T14:55:05.244Z,3.15
2023-11-15T14:57:53.706Z,3.38
2023-11-15T15:00:42.302Z,3.22
2023-11-15T15:03:28.288Z,3.30
2023-11-15T15:06:14.162Z,3.40
2023-11-15T15:08:59.818Z,3.38
2023-11-15T15:11:48.753Z,2.95
2023-11-15T15:14:37.357Z,3.15
2023-11-15T15:17:25.677Z,2.85
2023-11-15T15:20:15.781Z,3.17
2023-11-15T15:23:04.149Z,3.10
2023-11-15T15:25:50.750Z,3.20
2023-11-15T15:28:36.412Z,3.05
2023-11-15T15:31:22.923Z,3.88
2023-11-15T15:34:09.896Z,3.38
2023-11-15T15:36:55.526Z,2.80
2023-11-15T15:39:41.105Z,2.90
2023-11-15T15:42:26.732Z,3.13
2023-11-15T15:45:14.976Z,3.42
2023-11-15T15:48:01.478Z,3.30
2023-11-15T15:50:48.430Z,3.47
2023-11-15T15:53:34.242Z,3.67
2023-11-15T15:56:19.898Z,4.40
2023-11-15T15:59:05.510Z,5.18
2023-11-15T16:01:51.063Z,4.38
2023-11-15T16:04:42.433Z,4.30
2023-11-15T16:07:31.854Z,3.47
2023-11-15T16:10:20.506Z,3.33
2023-11-15T16:13:05.891Z,3.80
2023-11-15T16:15:52.413Z,4.47
2023-11-15T16:18:41.296Z,4.20
2023-11-15T16:21:27.064Z,4.88
2023-11-15T16:24:15.504Z,4.88
2023-11-15T16:27:04.505Z,5.47
2023-11-15T16:29:50.597Z,4.90
2023-11-15T16:32:37.036Z,4.82
2023-11-15T16:35:22.744Z,5.10
2023-11-15T16:38:09.046Z,4.90
2023-11-15T16:40:56.244Z,5.68
2023-11-15T16:43:44.552Z,6.72
2023-11-15T16:46:31.327Z,7.20
2023-11-15T16:49:18.657Z,8.57
2023-11-15T16:52:05.929Z,8.95
2023-11-15T16:54:51.435Z,8.52
2023-11-15T16:57:37.434Z,8.55
2023-11-15T17:00:22.952Z,8.38
2023-11-15T17:03:12.634Z,8.68
2023-11-15T17:05:58.499Z,8.10
2023-11-15T17:08:45.197Z,7.60
2023-11-15T17:11:33.556Z,7.68
2023-11-15T17:14:22.420Z,7.90
2023-11-15T17:17:08.518Z,8.38
2023-11-15T17:19:57.237Z,8.90
2023-11-15T17:22:43.358Z,9.45
2023-11-15T17:25:29.162Z,9.70
2023-11-15T17:28:15.663Z,10.32
2023-11-15T17:31:01.311Z,10.48
2023-11-15T17:33:47.348Z,10.30
2023-11-15T17:36:35.966Z,10.23
2023-11-15T17:39:23.033Z,10.30
2023-11-15T17:42:13.164Z,9.80
2023-11-15T17:44:59.788Z,11.38
2023-11-15T17:47:45.714Z,10.73
2023-11-15T17:50:31.561Z,9.52
2023-11-15T17:53:18.769Z,10.13
2023-11-15T17:56:05.903Z,9.80
2023-11-15T17:58:52.430Z,11.15
2023-11-15T18:01:39.871Z,10.60
2023-11-15T18:04:27.116Z,10.32
2023-11-15T18:07:12.780Z,11.02
2023-11-15T18:09:58.386Z,12.23
2023-11-15T18:12:45.471Z,16.42
2023-11-15T18:15:31.923Z,16.85
2023-11-15T18:18:18.485Z,18.08
2023-11-15T18:21:04.570Z,20.05
2023-11-15T18:23:50.669Z,20.60
2023-11-15T18:26:38.116Z,21.45
2023-11-15T18:29:23.994Z,20.85
2023-11-15T18:32:09.509Z,20.23
2023-11-15T18:34:55.284Z,20.45
2023-11-15T18:37:41.742Z,18.23
2023-11-15T18:40:28.073Z,17.63
2023-11-15T18:43:13.729Z,17.35
2023-11-15T18:45:59.593Z,17.25
2023-11-15T18:48:45.520Z,17.90
2023-11-15T18:51:31.848Z,16.67
2023-11-15T18:54:17.917Z,17.30
2023-11-15T18:57:04.129Z,16.65
2023-11-15T18:59:49.554Z,17.15
2023-11-15T19:02:40.722Z,16.25
2023-11-15T19:05:28.048Z,12.63
2023-11-15T19:08:15.433Z,21.20
2023-11-15T19:11:01.007Z,20.90
2023-11-15T19:13:47.830Z,21.40
2023-11-15T19:16:34.034Z,21.92
2023-11-15T19:19:19.864Z,21.15
2023-11-15T19:22:08.011Z,20.30
2023-11-15T19:24:54.844Z,19.77
2023-11-15T19:27:40.806Z,18.15
2023-11-15T19:30:26.441Z,18.60
2023-11-15T19:33:13.752Z,18.42
2023-11-15T19:35:59.692Z,19.85
2023-11-15T19:38:45.231Z,19.15
2023-11-15T19:41:31.289Z,19.77
2023-11-15T19:44:16.789Z,19.10
2023-11-15T19:47:02.528Z,19.00
2023-11-15T19:49:48.163Z,18.80
2023-11-15T19:52:35.464Z,19.02
2023-11-15T19:55:21.487Z,20.45
2023-11-15T19:58:07.085Z,20.30
2023-11-15T20:00:52.578Z,22.08
2023-11-15T20:03:38.736Z,21.52
2023-11-15T20:06:25.019Z,21.85
2023-11-15T20:09:11.693Z,23.23
2023-11-15T20:11:58.416Z,22.48
2023-11-15T20:14:44.536Z,22.33
2023-11-15T20:17:33.019Z,19.90
2023-11-15T20:20:21.759Z,19.88
2023-11-15T20:23:07.244Z,18.35
2023-11-15T20:25:53.134Z,18.67
2023-11-15T20:28:44.520Z,16.73
2023-11-15T20:31:31.749Z,18.10
2023-11-15T20:34:19.794Z,16.20
2023-11-15T20:37:06.878Z,16.50
2023-11-15T20:39:53.696Z,16.65
2023-11-15T20:42:39.258Z,17.17
2023-11-15T20:45:24.819Z,17.55
2023-11-15T20:48:20.798Z,16.77
2023-11-15T20:51:06.848Z,17.80
2023-11-15T20:53:52.661Z,16.30
2023-11-15T20:56:38.488Z,14.50
2023-11-15T20:59:24.079Z,13.90
2023-11-15T21:02:09.507Z,12.88
2023-11-15T21:04:56.786Z,13.68
2023-11-15T21:07:42.905Z,14.52
2023-11-15T21:10:28.613Z,13.13
2023-11-15T21:13:14.930Z,15.35
2023-11-15T21:16:04.127Z,15.20
2023-11-15T21:18:50.674Z,13.77
2023-11-15T21:21:36.824Z,13.77
2023-11-15T21:24:23.521Z,14.57
2023-11-15T21:27:09.351Z,15.52
2023-11-15T21:29:55.170Z,14.27
2023-11-15T21:32:42.840Z,14.48
2023-11-15T21:35:31.387Z,14.55
2023-11-15T21:38:17.812Z,15.18
2023-11-15T21:41:04.367Z,14.27
2023-11-15T21:43:50.026Z,14.93
2023-11-15T21:46:35.679Z,15.65
2023-11-15T21:49:23.612Z,15.75
2023-11-15T21:52:09.121Z,15.85
2023-11-15T21:54:54.663Z,15.18
2023-11-15T21:57:40.212Z,15.70
2023-11-15T22:00:26.805Z,14.18
2023-11-15T22:03:12.648Z,15.38
2023-11-15T22:05:58.620Z,14.48
2023-11-15T22:08:44.733Z,15.73
2023-11-15T22:11:30.365Z,17.15
2023-11-15T22:14:21.349Z,17.45
2023-11-15T22:17:08.135Z,18.90
2023-11-15T22:19:53.660Z,17.88
2023-11-15T22:22:40.258Z,16.13
2023-11-15T22:25:25.860Z,15.88
2023-11-15T22:28:11.734Z,16.17
2023-11-15T22:30:58.214Z,16.13
2023-11-15T22:33:43.980Z,15.90
2023-11-15T22:36:31.077Z,15.50
2023-11-15T22:39:17.297Z,17.88
2023-11-15T22:42:04.419Z,16.25
2023-11-15T22:44:50.182Z,16.20
2023-11-15T22:47:38.527Z,16.33
2023-11-15T22:50:24.102Z,15.40
2023-11-15T22:53:09.593Z,15.35
2023-11-15T22:55:55.185Z,15.55
2023-11-15T22:58:40.813Z,16.67
2023-11-15T23:01:27.641Z,15.88
2023-11-15T23:04:16.920Z,16.40
2023-11-15T23:07:02.566Z,15.57
2023-11-15T23:09:48.392Z,16.20
2023-11-15T23:12:35.026Z,15.25
2023-11-15T23:15:22.275Z,15.82
2023-11-15T23:18:10.975Z,15.65
2023-11-15T23:20:58.865Z,15.98
2023-11-15T23:23:45.974Z,15.63
2023-11-15T23:26:31.726Z,15.38
2023-11-15T23:29:17.247Z,15.70
2023-11-15T23:32:06.499Z,15.73
2023-11-15T23:34:52.488Z,16.73
2023-11-15T23:37:38.342Z,16.50
2023-11-15T23:40:25.423Z,16.33
2023-11-15T23:43:12.481Z,17.20
2023-11-15T23:45:58.623Z,16.85
2023-11-15T23:48:44.576Z,17.17
2023-11-15T23:51:31.062Z,18.05
2023-11-15T23:54:16.548Z,17.90
2023-11-15T23:57:04.379Z,16.80
2023-11-15T23:59:50.183Z,17.85
